createdAt,value
2019-02-09T00:00:39.887Z,62.90
2019-02-09T00:03:10.150Z,64.50
2019-02-09T00:05:38.923Z,66.30
2019-02-09T00:08:09.477Z,66.90
2019-02-09T00:10:38.056Z,67.30
2019-02-09T00:13:06.755Z,67.40
2019-02-09T00:15:36.295Z,67.80
2019-02-09T00:18:06.600Z,67.80
2019-02-09T00:20:36.016Z,68.00
2019-02-09T00:23:05.619Z,67.60
2019-02-09T00:25:34.411Z,68.00
2019-02-09T00:28:03.477Z,67.20
2019-02-09T00:30:32.161Z,66.80
2019-02-09T00:33:02.271Z,66.90
2019-02-09T00:35:32.587Z,67.10
2019-02-09T00:38:01.415Z,67.30
2019-02-09T00:40:31.334Z,67.10
2019-02-09T00:43:00.532Z,67.20
2019-02-09T00:45:30.214Z,68.20
2019-02-09T00:47:58.776Z,68.80
2019-02-09T00:50:27.449Z,69.50
2019-02-09T00:52:56.368Z,70.70
2019-02-09T00:55:27.492Z,71.10
2019-02-09T00:57:56.480Z,71.60
2019-02-09T01:00:26.492Z,71.30
2019-02-09T01:02:55.188Z,70.90
2019-02-09T01:05:37.020Z,72.30
2019-02-09T01:08:05.909Z,72.90
2019-02-09T01:10:34.981Z,71.60
2019-02-09T01:13:05.240Z,71.50
2019-02-09T01:15:33.960Z,71.90
2019-02-09T01:18:02.508Z,71.70
2019-02-09T01:20:31.336Z,72.60
2019-02-09T01:23:00.592Z,71.30
2019-02-09T01:25:29.252Z,72.50
2019-02-09T01:27:57.800Z,71.50
2019-02-09T01:30:28.388Z,71.10
2019-02-09T01:32:57.213Z,71.30
2019-02-09T01:35:26.853Z,71.60
2019-02-09T01:37:55.869Z,71.90
2019-02-09T01:40:29.407Z,71.50
2019-02-09T01:42:58.408Z,71.30
2019-02-09T01:45:30.135Z,71.70
2019-02-09T01:47:59.363Z,71.70
2019-02-09T01:50:30.953Z,71.70
2019-02-09T01:53:00.619Z,72.20
2019-02-09T01:55:30.163Z,71.70
2019-02-09T01:58:00.887Z,71.70
2019-02-09T02:00:34.255Z,70.80
2019-02-09T02:03:03.343Z,70.10
2019-02-09T02:05:33.187Z,70.10
2019-02-09T02:08:01.747Z,69.80
2019-02-09T02:10:33.120Z,69.50
2019-02-09T02:13:03.475Z,68.90
2019-02-09T02:15:32.487Z,68.60
2019-02-09T02:18:01.175Z,67.10
2019-02-09T02:20:32.192Z,66.40
2019-02-09T02:23:02.234Z,65.80
2019-02-09T02:25:30.976Z,65.90
2019-02-09T02:27:59.860Z,65.60
2019-02-09T02:30:36.817Z,64.30
2019-02-09T02:33:07.099Z,64.70
2019-02-09T02:35:36.401Z,65.60
2019-02-09T02:38:05.496Z,65.20
2019-02-09T02:40:34.372Z,65.80
2019-02-09T02:43:02.939Z,65.20
2019-02-09T02:45:32.153Z,65.90
2019-02-09T02:48:00.724Z,65.50
2019-02-09T02:50:31.283Z,65.10
2019-02-09T02:52:59.579Z,65.40
2019-02-09T02:55:32.737Z,66.00
2019-02-09T02:58:01.453Z,67.30
2019-02-09T03:00:33.853Z,67.30
2019-02-09T03:03:02.827Z,68.00
2019-02-09T03:05:31.675Z,67.30
2019-02-09T03:08:00.355Z,69.10
2019-02-09T03:10:28.956Z,68.90
2019-02-09T03:12:59.325Z,69.50
2019-02-09T03:15:30.150Z,70.20
2019-02-09T03:17:58.860Z,69.80
2019-02-09T03:20:28.101Z,70.80
2019-02-09T03:22:56.879Z,70.60
2019-02-09T03:25:28.168Z,71.00
2019-02-09T03:27:56.783Z,70.40
2019-02-09T03:30:26.333Z,69.90
2019-02-09T03:32:55.297Z,70.10
2019-02-09T03:35:24.106Z,68.90
2019-02-09T03:37:53.153Z,68.00
2019-02-09T03:40:27.164Z,68.00
2019-02-09T03:42:56.396Z,69.80
2019-02-09T03:45:28.000Z,67.60
2019-02-09T03:47:56.808Z,67.60
2019-02-09T03:50:31.008Z,65.40
2019-02-09T03:53:00.501Z,64.40
2019-02-09T03:55:30.809Z,64.20
2019-02-09T03:57:59.608Z,64.50
2019-02-09T04:00:30.216Z,63.30
2019-02-09T04:02:59.325Z,63.30
2019-02-09T04:05:28.151Z,64.10
2019-02-09T04:07:56.769Z,65.50
2019-02-09T04:10:28.245Z,66.50
2019-02-09T04:12:56.860Z,68.80
2019-02-09T04:15:31.176Z,70.00
2019-02-09T04:18:00.116Z,72.50
2019-02-09T04:20:28.735Z,73.40
2019-02-09T04:22:58.647Z,74.60
2019-02-09T04:25:27.276Z,74.60
2019-02-09T04:27:56.290Z,75.20
2019-02-09T04:30:27.673Z,74.40
2019-02-09T04:32:56.421Z,74.20
2019-02-09T04:35:25.037Z,74.90
2019-02-09T04:37:53.867Z,74.40
2019-02-09T04:40:30.050Z,75.10
2019-02-09T04:42:58.852Z,75.70
2019-02-09T04:45:27.492Z,76.60
2019-02-09T04:47:56.203Z,81.40
2019-02-09T04:50:25.492Z,81.90
2019-02-09T04:52:54.228Z,82.90
2019-02-09T04:55:27.466Z,83.70
2019-02-09T04:57:56.357Z,87.50
2019-02-09T05:00:27.795Z,89.00
2019-02-09T05:02:56.575Z,90.20
2019-02-09T05:05:25.282Z,91.50
2019-02-09T05:07:53.833Z,92.00
2019-02-09T05:10:23.937Z,92.80
2019-02-09T05:12:52.551Z,93.60
2019-02-09T05:15:22.169Z,94.00
2019-02-09T05:17:50.961Z,94.00
2019-02-09T05:20:24.929Z,94.20
2019-02-09T05:22:54.498Z,94.30
2019-02-09T05:25:23.579Z,94.30
2019-02-09T05:27:52.216Z,94.30
2019-02-09T05:30:27.990Z,94.40
2019-02-09T05:32:56.784Z,94.50
2019-02-09T05:35:25.878Z,94.60
2019-02-09T05:37:54.725Z,94.70
2019-02-09T05:40:25.221Z,94.90
2019-02-09T05:42:54.813Z,94.90
2019-02-09T05:45:28.228Z,94.80
2019-02-09T05:47:56.839Z,94.90
2019-02-09T05:50:25.552Z,94.90
2019-02-09T05:52:54.831Z,95.00
2019-02-09T05:55:24.004Z,95.00
2019-02-09T05:57:53.007Z,95.00
2019-02-09T06:00:25.584Z,95.10
2019-02-09T06:02:54.269Z,95.20
2019-02-09T06:05:22.955Z,95.20
2019-02-09T06:07:51.524Z,95.40
2019-02-09T06:10:20.608Z,95.40
2019-02-09T06:12:49.403Z,95.60
2019-02-09T06:15:28.765Z,95.60
2019-02-09T06:17:57.500Z,95.60
2019-02-09T06:20:30.221Z,95.70
2019-02-09T06:22:59.060Z,95.80
2019-02-09T06:25:28.946Z,95.90
2019-02-09T06:27:57.647Z,96.20
2019-02-09T06:30:33.432Z,96.40
2019-02-09T06:33:02.300Z,96.50
2019-02-09T06:35:32.300Z,96.60
2019-02-09T06:38:00.903Z,97.20
2019-02-09T06:40:29.787Z,96.80
2019-02-09T06:42:59.585Z,96.70
2019-02-09T06:45:28.385Z,96.60
2019-02-09T06:48:18.761Z,96.40
2019-02-09T06:50:47.416Z,96.10
2019-02-09T06:53:16.061Z,95.90
2019-02-09T06:55:44.639Z,95.80
2019-02-09T06:58:14.253Z,95.70
2019-02-09T07:00:43.042Z,95.50
2019-02-09T07:03:11.846Z,95.30
2019-02-09T07:05:40.407Z,95.10
2019-02-09T07:08:09.144Z,94.90
2019-02-09T07:10:38.266Z,93.70
2019-02-09T07:13:07.351Z,91.80
2019-02-09T07:15:37.540Z,91.10
2019-02-09T07:18:07.156Z,90.10
2019-02-09T07:20:36.244Z,88.10
2019-02-09T07:23:06.366Z,88.40
2019-02-09T07:25:35.055Z,89.40
2019-02-09T07:28:04.187Z,90.60
2019-02-09T07:30:35.561Z,91.10
2019-02-09T07:33:05.848Z,91.70
2019-02-09T07:35:34.603Z,92.00
2019-02-09T07:38:03.233Z,92.10
2019-02-09T07:40:31.817Z,93.20
2019-02-09T07:43:02.973Z,92.00
2019-02-09T07:45:33.382Z,91.90
2019-02-09T07:48:03.446Z,91.70
2019-02-09T07:50:32.737Z,91.70
2019-02-09T07:53:01.363Z,91.20
2019-02-09T07:55:30.088Z,90.80
2019-02-09T07:57:58.642Z,90.60
2019-02-09T08:00:34.194Z,89.60
2019-02-09T08:03:04.461Z,88.60
2019-02-09T08:05:33.949Z,89.10
2019-02-09T08:08:02.689Z,89.10
2019-02-09T08:10:38.490Z,87.80
2019-02-09T08:13:11.732Z,83.90
2019-02-09T08:15:43.954Z,82.80
2019-02-09T08:18:12.521Z,83.60
2019-02-09T08:20:41.228Z,85.30
2019-02-09T08:23:11.123Z,87.10
2019-02-09T08:25:42.515Z,88.60
2019-02-09T08:28:12.822Z,89.70
2019-02-09T08:30:46.857Z,89.70
2019-02-09T08:33:15.557Z,89.70
2019-02-09T08:35:45.211Z,89.20
2019-02-09T08:38:15.728Z,88.00
2019-02-09T08:40:44.415Z,87.10
2019-02-09T08:43:13.495Z,85.80
2019-02-09T08:45:42.185Z,84.80
2019-02-09T08:48:11.085Z,85.10
2019-02-09T08:50:58.956Z,85.50
2019-02-09T08:53:27.641Z,85.60
2019-02-09T08:55:56.283Z,83.00
2019-02-09T08:58:24.836Z,78.20
2019-02-09T09:00:53.407Z,65.60
2019-02-09T09:03:22.044Z,55.00
2019-02-09T09:05:50.752Z,49.20
2019-02-09T09:08:19.607Z,49.00
2019-02-09T09:10:48.876Z,51.20
2019-02-09T09:13:17.492Z,54.40
2019-02-09T09:15:51.913Z,59.20
2019-02-09T09:18:20.485Z,64.50
2019-02-09T09:20:51.980Z,72.30
2019-02-09T09:23:20.616Z,76.40
2019-02-09T09:25:49.503Z,77.30
2019-02-09T09:28:18.104Z,69.50
2019-02-09T09:30:46.738Z,59.70
2019-02-09T09:33:15.278Z,52.80
2019-02-09T09:35:43.988Z,48.30
2019-02-09T09:38:12.823Z,46.10
2019-02-09T09:40:43.228Z,41.60
2019-02-09T09:43:13.344Z,38.20
2019-02-09T09:45:45.770Z,33.30
2019-02-09T09:48:19.950Z,31.50
2019-02-09T09:50:48.871Z,31.60
2019-02-09T09:53:17.433Z,32.10
2019-02-09T09:55:47.629Z,31.00
2019-02-09T09:58:16.362Z,29.40
2019-02-09T10:00:44.933Z,28.30
2019-02-09T10:03:13.549Z,27.40
2019-02-09T10:05:42.109Z,26.10
2019-02-09T10:08:10.824Z,25.40
2019-02-09T10:10:39.512Z,26.50
2019-02-09T10:13:10.907Z,28.70
2019-02-09T10:15:39.535Z,32.20
2019-02-09T10:18:08.181Z,36.80
2019-02-09T10:20:36.839Z,41.00
2019-02-09T10:23:05.842Z,43.10
2019-02-09T10:25:34.596Z,39.80
2019-02-09T10:28:03.304Z,37.50
2019-02-09T10:30:33.841Z,39.40
2019-02-09T10:33:03.037Z,41.20
2019-02-09T10:35:32.318Z,42.50
2019-02-09T10:38:01.365Z,44.90
2019-02-09T10:40:37.812Z,48.50
2019-02-09T10:43:08.566Z,51.50
2019-02-09T10:45:37.870Z,53.50
2019-02-09T10:48:07.815Z,54.50
2019-02-09T10:50:41.677Z,55.70
2019-02-09T10:53:12.564Z,56.70
2019-02-09T10:55:41.122Z,55.40
2019-02-09T10:58:10.641Z,52.70
2019-02-09T11:00:45.469Z,54.10
2019-02-09T11:03:14.723Z,55.30
2019-02-09T11:05:43.832Z,55.90
2019-02-09T11:08:13.234Z,57.90
2019-02-09T11:10:42.012Z,58.20
2019-02-09T11:13:11.426Z,60.00
2019-02-09T11:15:40.426Z,60.90
2019-02-09T11:18:11.048Z,61.60
2019-02-09T11:20:40.243Z,62.00
2019-02-09T11:23:08.822Z,63.30
2019-02-09T11:25:38.850Z,62.70
2019-02-09T11:28:07.548Z,61.00
2019-02-09T11:30:36.932Z,61.60
2019-02-09T11:33:05.621Z,59.70
2019-02-09T11:35:34.725Z,59.20
2019-02-09T11:38:04.936Z,59.50
2019-02-09T11:40:34.512Z,59.40
2019-02-09T11:43:06.003Z,59.90
2019-02-09T11:45:36.473Z,60.90
2019-02-09T11:48:06.291Z,62.20
2019-02-09T11:50:37.834Z,63.30
2019-02-09T11:53:06.577Z,63.50
2019-02-09T11:55:35.865Z,62.20
2019-02-09T11:58:04.849Z,62.40
2019-02-09T12:00:38.018Z,62.90
2019-02-09T12:03:14.611Z,63.80
2019-02-09T12:05:37.356Z,65.10
2019-02-09T12:08:07.439Z,66.40
2019-02-09T12:10:36.567Z,67.40
2019-02-09T12:13:06.164Z,71.80
2019-02-09T12:15:37.428Z,76.60
2019-02-09T12:18:12.111Z,82.90
2019-02-09T12:20:41.142Z,88.10
2019-02-09T12:23:10.131Z,86.40
2019-02-09T12:25:40.044Z,86.80
2019-02-09T12:28:13.048Z,81.20
2019-02-09T12:30:42.333Z,80.80
2019-02-09T12:33:13.458Z,73.50
2019-02-09T12:35:43.963Z,74.50
2019-02-09T12:38:13.405Z,74.10
2019-02-09T12:40:43.019Z,72.80
2019-02-09T12:43:12.414Z,72.70
2019-02-09T12:45:42.429Z,66.50
2019-02-09T12:48:12.668Z,69.10
2019-02-09T12:50:43.286Z,69.70
2019-02-09T12:53:12.016Z,70.70
2019-02-09T12:55:40.741Z,70.50
2019-02-09T12:58:09.399Z,70.80
2019-02-09T13:00:39.424Z,70.90
2019-02-09T13:03:11.803Z,71.40
2019-02-09T13:05:40.366Z,71.00
2019-02-09T13:08:09.181Z,71.90
2019-02-09T13:10:39.442Z,73.60
2019-02-09T13:13:10.081Z,73.80
2019-02-09T13:15:38.916Z,73.70
2019-02-09T13:18:07.895Z,74.40
2019-02-09T13:20:37.124Z,75.20
2019-02-09T13:23:07.848Z,74.30
2019-02-09T13:25:36.893Z,74.70
2019-02-09T13:28:07.758Z,73.30
2019-02-09T13:30:39.050Z,72.20
2019-02-09T13:33:08.566Z,73.50
2019-02-09T13:35:37.125Z,72.90
2019-02-09T13:38:05.836Z,72.90
2019-02-09T13:40:35.331Z,72.10
2019-02-09T13:43:04.685Z,71.60
2019-02-09T13:45:43.599Z,70.90
2019-02-09T13:48:14.664Z,74.20
2019-02-09T13:50:43.212Z,80.30
2019-02-09T13:53:15.086Z,84.60
2019-02-09T13:55:43.817Z,86.30
2019-02-09T13:58:13.204Z,86.00
2019-02-09T14:00:43.732Z,88.30
2019-02-09T14:03:12.646Z,89.10
2019-02-09T14:05:42.230Z,89.30
2019-02-09T14:08:13.686Z,90.00
2019-02-09T14:10:42.283Z,90.20
2019-02-09T14:13:14.702Z,90.20
2019-02-09T14:15:41.236Z,90.70
2019-02-09T14:18:12.701Z,91.00
2019-02-09T14:20:42.939Z,91.00
2019-02-09T14:23:11.621Z,91.10
2019-02-09T14:25:40.741Z,90.50
2019-02-09T14:28:09.697Z,90.30
2019-02-09T14:30:41.009Z,90.10
2019-02-09T14:33:11.133Z,90.00
2019-02-09T14:35:44.098Z,90.30
2019-02-09T14:38:14.619Z,90.30
2019-02-09T14:40:43.378Z,89.30
2019-02-09T14:43:12.574Z,88.40
2019-02-09T14:45:44.347Z,88.00
2019-02-09T14:48:15.189Z,88.20
2019-02-09T14:50:45.760Z,88.30
2019-02-09T14:53:15.693Z,88.50
2019-02-09T14:55:44.809Z,89.20
2019-02-09T14:58:14.326Z,88.60
2019-02-09T15:00:54.996Z,88.00
2019-02-09T15:03:27.314Z,88.60
2019-02-09T15:05:54.817Z,87.80
2019-02-09T15:08:23.410Z,88.00
2019-02-09T15:10:52.227Z,88.10
2019-02-09T15:13:26.295Z,88.10
2019-02-09T15:16:09.751Z,88.50
2019-02-09T15:18:38.300Z,89.40
2019-02-09T15:21:10.130Z,88.60
2019-02-09T15:23:38.746Z,89.40
2019-02-09T15:26:08.367Z,89.40
2019-02-09T15:28:36.968Z,89.50
2019-02-09T15:31:07.113Z,90.00
2019-02-09T15:33:37.784Z,90.00
2019-02-09T15:36:06.493Z,90.20
2019-02-09T15:38:35.135Z,89.50
2019-02-09T15:41:03.923Z,90.20
2019-02-09T15:43:33.230Z,89.10
2019-02-09T15:46:03.565Z,89.70
2019-02-09T15:48:32.092Z,89.10
2019-02-09T15:51:00.708Z,89.30
2019-02-09T15:53:29.281Z,89.20
2019-02-09T15:55:58.159Z,89.40
2019-02-09T15:58:26.745Z,89.70
2019-02-09T16:00:55.373Z,89.00
2019-02-09T16:03:26.440Z,87.60
2019-02-09T16:05:55.100Z,86.20
2019-02-09T16:08:23.663Z,84.10
2019-02-09T16:10:52.251Z,84.20
2019-02-09T16:13:23.782Z,83.70
2019-02-09T16:15:53.229Z,83.30
2019-02-09T16:18:21.793Z,81.30
2019-02-09T16:20:50.457Z,81.10
2019-02-09T16:23:19.056Z,80.60
2019-02-09T16:25:47.781Z,80.00
2019-02-09T16:28:16.421Z,77.50
2019-02-09T16:30:46.487Z,75.40
2019-02-09T16:33:19.099Z,76.00
2019-02-09T16:35:47.918Z,74.90
2019-02-09T16:38:16.565Z,75.00
2019-02-09T16:40:47.744Z,73.30
2019-02-09T16:43:16.397Z,73.70
2019-02-09T16:45:46.536Z,74.50
2019-02-09T16:48:16.935Z,72.10
2019-02-09T16:50:48.191Z,72.30
2019-02-09T16:53:16.835Z,71.90
2019-02-09T16:55:45.407Z,71.30
2019-02-09T16:58:15.385Z,71.40
2019-02-09T17:00:45.100Z,70.70
2019-02-09T17:03:17.059Z,71.40
2019-02-09T17:05:45.343Z,71.20
2019-02-09T17:08:14.039Z,71.50
2019-02-09T17:10:43.088Z,71.60
2019-02-09T17:13:11.644Z,71.80
2019-02-09T17:15:40.484Z,71.80
2019-02-09T17:18:09.400Z,71.50
2019-02-09T17:20:39.671Z,72.10
2019-02-09T17:23:08.979Z,71.80
2019-02-09T17:25:37.651Z,71.50
2019-02-09T17:28:07.242Z,71.50
2019-02-09T17:30:38.453Z,71.30
2019-02-09T17:33:07.464Z,71.60
2019-02-09T17:35:36.089Z,71.30
2019-02-09T17:38:06.616Z,71.50
2019-02-09T17:40:41.374Z,71.30
2019-02-09T17:43:10.208Z,71.00
2019-02-09T17:45:48.421Z,71.80
2019-02-09T17:48:17.128Z,72.20
2019-02-09T17:50:45.748Z,73.90
2019-02-09T17:53:14.315Z,72.10
2019-02-09T17:55:42.885Z,72.60
2019-02-09T17:58:11.716Z,73.40
2019-02-09T18:00:41.924Z,72.30
2019-02-09T18:03:13.082Z,72.70
2019-02-09T18:05:45.928Z,72.60
2019-02-09T18:08:14.476Z,73.20
2019-02-09T18:10:43.068Z,72.90
2019-02-09T18:13:11.616Z,73.40
2019-02-09T18:15:40.188Z,73.50
2019-02-09T18:18:09.598Z,73.80
2019-02-09T18:20:38.388Z,74.20
2019-02-09T18:23:07.050Z,74.20
2019-02-09T18:25:35.767Z,77.30
2019-02-09T18:28:05.712Z,74.40
2019-02-09T18:30:36.215Z,75.20
2019-02-09T18:33:06.216Z,73.50
2019-02-09T18:35:34.905Z,73.60
2019-02-09T18:38:03.837Z,73.80
2019-02-09T18:40:32.467Z,73.50
2019-02-09T18:43:01.016Z,73.30
2019-02-09T18:45:31.966Z,74.40
2019-02-09T18:48:01.211Z,73.80
2019-02-09T18:50:31.757Z,73.50
2019-02-09T18:53:02.008Z,73.50
2019-02-09T18:55:31.255Z,73.50
2019-02-09T18:57:59.894Z,73.50
2019-02-09T19:00:31.989Z,74.00
2019-02-09T19:03:01.040Z,74.20
2019-02-09T19:05:29.789Z,74.80
2019-02-09T19:08:01.632Z,74.70
2019-02-09T19:10:30.552Z,74.70
2019-02-09T19:12:59.408Z,75.10
2019-02-09T19:15:29.008Z,75.10
2019-02-09T19:18:01.079Z,75.10
2019-02-09T19:20:38.669Z,75.30
2019-02-09T19:23:08.098Z,75.90
2019-02-09T19:25:37.179Z,75.70
2019-02-09T19:28:06.319Z,75.90
2019-02-09T19:30:35.104Z,76.10
2019-02-09T19:33:04.212Z,76.00
2019-02-09T19:35:32.790Z,76.40
2019-02-09T19:38:01.336Z,76.40
2019-02-09T19:40:30.119Z,77.00
2019-02-09T19:42:59.932Z,77.50
2019-02-09T19:45:31.036Z,77.10
2019-02-09T19:48:00.941Z,77.70
2019-02-09T19:50:29.829Z,76.90
2019-02-09T19:52:58.563Z,77.40
2019-02-09T19:55:33.573Z,77.30
2019-02-09T19:58:02.402Z,77.20
2019-02-09T20:00:46.091Z,77.70
2019-02-09T20:03:15.143Z,77.80
2019-02-09T20:05:43.788Z,77.90
2019-02-09T20:08:12.683Z,77.80
2019-02-09T20:10:43.397Z,77.70
2019-02-09T20:13:13.191Z,77.50
2019-02-09T20:15:42.199Z,77.90
2019-02-09T20:18:12.196Z,78.10
2019-02-09T20:20:46.970Z,79.20
2019-02-09T20:23:11.063Z,78.30
2019-02-09T20:25:39.968Z,81.60
2019-02-09T20:28:08.594Z,78.90
2019-02-09T20:30:42.383Z,78.40
2019-02-09T20:33:11.317Z,78.50
2019-02-09T20:35:41.868Z,78.20
2019-02-09T20:38:10.782Z,78.40
2019-02-09T20:40:48.200Z,78.50
2019-02-09T20:43:19.292Z,78.50
2019-02-09T20:45:48.620Z,79.70
2019-02-09T20:48:17.329Z,78.80
2019-02-09T20:50:46.418Z,78.90
2019-02-09T20:53:16.148Z,80.60
2019-02-09T20:55:44.772Z,79.40
2019-02-09T20:58:14.584Z,79.30
2019-02-09T21:00:43.376Z,79.40
2019-02-09T21:03:12.473Z,79.40
2019-02-09T21:05:41.031Z,79.30
2019-02-09T21:08:09.704Z,80.00
2019-02-09T21:10:43.283Z,79.50
2019-02-09T21:13:11.874Z,79.60
2019-02-09T21:15:40.573Z,79.60
2019-02-09T21:18:10.933Z,80.00
2019-02-09T21:20:39.578Z,80.30
2019-02-09T21:23:08.714Z,80.30
2019-02-09T21:25:48.251Z,80.30
2019-02-09T21:28:18.032Z,81.00
2019-02-09T21:30:46.608Z,80.70
2019-02-09T21:33:15.498Z,80.40
2019-02-09T21:35:46.976Z,80.70
2019-02-09T21:38:16.484Z,80.30
2019-02-09T21:40:46.700Z,80.40
2019-02-09T21:43:15.320Z,83.90
2019-02-09T21:45:45.574Z,81.40
2019-02-09T21:48:14.452Z,80.70
2019-02-09T21:50:42.963Z,80.70
2019-02-09T21:53:11.544Z,80.60
2019-02-09T21:55:41.487Z,80.30
2019-02-09T21:58:12.190Z,80.80
2019-02-09T22:00:44.085Z,80.70
2019-02-09T22:03:13.289Z,81.10
2019-02-09T22:05:42.272Z,81.00
2019-02-09T22:08:19.592Z,81.30
2019-02-09T22:10:46.447Z,81.00
2019-02-09T22:13:15.031Z,82.00
2019-02-09T22:15:44.012Z,80.50
2019-02-09T22:18:12.791Z,80.70
2019-02-09T22:20:41.748Z,81.40
2019-02-09T22:23:10.760Z,81.80
2019-02-09T22:25:39.287Z,82.00
2019-02-09T22:28:07.839Z,82.20
2019-02-09T22:30:36.409Z,82.10
2019-02-09T22:33:05.568Z,82.00
2019-02-09T22:35:34.210Z,82.70
2019-02-09T22:38:05.508Z,83.10
2019-02-09T22:40:41.565Z,84.00
2019-02-09T22:43:11.999Z,83.00
2019-02-09T22:45:41.539Z,83.00
2019-02-09T22:48:10.444Z,83.10
2019-02-09T22:50:42.201Z,83.60
2019-02-09T22:53:10.779Z,83.40
2019-02-09T22:55:39.567Z,83.60
2019-02-09T22:58:10.342Z,84.20
2019-02-09T23:00:47.575Z,84.10
2019-02-09T23:03:17.811Z,84.20
2019-02-09T23:06:12.271Z,84.70
2019-02-09T23:08:43.247Z,84.60
2019-02-09T23:11:11.803Z,84.40
2019-02-09T23:13:40.400Z,84.40
2019-02-09T23:16:10.401Z,84.70
2019-02-09T23:18:38.960Z,84.50
2019-02-09T23:21:10.055Z,84.80
2019-02-09T23:23:38.598Z,85.10
2019-02-09T23:26:07.304Z,85.40
2019-02-09T23:28:35.876Z,85.50
2019-02-09T23:31:04.464Z,86.80
2019-02-09T23:33:33.015Z,86.40
2019-02-09T23:36:01.591Z,86.40
2019-02-09T23:38:30.144Z,87.10
2019-02-09T23:40:58.859Z,86.80
2019-02-09T23:43:27.440Z,87.00
2019-02-09T23:45:56.029Z,86.80
2019-02-09T23:48:24.609Z,87.00
2019-02-09T23:50:53.187Z,87.50
2019-02-09T23:53:21.761Z,87.70
2019-02-09T23:55:50.460Z,88.10
2019-02-09T23:58:19.031Z,88.70
